Artic, Indiana
Current Conditions -  °F | °C
As of 9:15 AM on Monday 26 Jan 2015 (Local Time) from KGWB Reporting Station
Clear Clear  
Wind Chill:   Ceiling: Unl
Heat Index: 12°   Visibility: 10mi
Dew Point:   Wind: 7mph
Humidity: 79%   Direction: 350°N
Pressure: 29.95"   Gusts: NA
Location:  41.4294°N, 84.8751°W
Report Text: KGWB 261415Z AUTO 35006KT 10SM CLR M11/M14 A2995 RMK AO2
Loading
Personal Weather Stations






























Interactive Weather Map New forecast layout! Learn more

10-Day Weather Forecast

Advertisements
Track Severe Weather on mobile